sensor_id;sensor_type;location;lat;lon;timestamp;P1;durP1;ratioP1;P2;durP2;ratioP2
38312;SDS011;24114;52.260;6.714;2022-08-07T20:05:55;1.52;;;1.10;;
38312;SDS011;24114;52.260;6.714;2022-08-07T20:08:28;2.45;;;0.93;;
38312;SDS011;24114;52.260;6.714;2022-08-07T20:10:58;1.40;;;0.70;;
38312;SDS011;24114;52.260;6.714;2022-08-07T20:13:37;1.70;;;0.80;;
38312;SDS011;24114;52.260;6.714;2022-08-07T20:16:15;1.85;;;0.80;;
38312;SDS011;24114;52.260;6.714;2022-08-07T20:19:01;1.90;;;1.00;;
38312;SDS011;24114;52.260;6.714;2022-08-07T20:21:37;2.15;;;1.17;;
38312;SDS011;24114;52.260;6.714;2022-08-07T20:24:13;1.73;;;0.88;;
38312;SDS011;24114;52.260;6.714;2022-08-07T20:26:47;1.50;;;1.00;;
38312;SDS011;24114;52.260;6.714;2022-08-07T20:29:20;2.65;;;0.93;;
38312;SDS011;24114;52.260;6.714;2022-08-07T20:32:09;2.17;;;0.90;;
38312;SDS011;24114;52.260;6.714;2022-08-07T20:34:51;2.50;;;1.15;;
38312;SDS011;24114;52.260;6.714;2022-08-07T20:37:22;2.85;;;1.15;;
38312;SDS011;24114;52.260;6.714;2022-08-07T20:39:55;2.50;;;1.00;;
38312;SDS011;24114;52.260;6.714;2022-08-07T20:42:29;1.60;;;1.10;;
38312;SDS011;24114;52.260;6.714;2022-08-07T20:44:58;1.98;;;1.30;;
38312;SDS011;24114;52.260;6.714;2022-08-07T20:47:48;2.15;;;1.33;;
38312;SDS011;24114;52.260;6.714;2022-08-07T20:50:23;3.67;;;1.57;;
38312;SDS011;24114;52.260;6.714;2022-08-07T20:52:54;2.33;;;1.42;;
38312;SDS011;24114;52.260;6.714;2022-08-07T20:55:23;3.58;;;1.35;;
38312;SDS011;24114;52.260;6.714;2022-08-07T20:57:51;1.90;;;1.43;;
38312;SDS011;24114;52.260;6.714;2022-08-07T21:00:30;2.10;;;1.43;;
38312;SDS011;24114;52.260;6.714;2022-08-07T21:02:59;2.17;;;1.60;;
38312;SDS011;24114;52.260;6.714;2022-08-07T21:05:30;2.72;;;1.77;;
38312;SDS011;24114;52.260;6.714;2022-08-07T21:08:24;1.70;;;1.60;;
38312;SDS011;24114;52.260;6.714;2022-08-07T21:11:03;2.28;;;1.67;;
38312;SDS011;24114;52.260;6.714;2022-08-07T21:13:37;2.35;;;1.80;;
38312;SDS011;24114;52.260;6.714;2022-08-07T21:16:26;4.22;;;2.30;;
38312;SDS011;24114;52.260;6.714;2022-08-07T21:18:57;2.50;;;1.95;;
38312;SDS011;24114;52.260;6.714;2022-08-07T21:21:28;3.20;;;1.92;;
38312;SDS011;24114;52.260;6.714;2022-08-07T21:24:17;3.00;;;1.83;;
38312;SDS011;24114;52.260;6.714;2022-08-07T21:26:54;2.78;;;1.77;;
38312;SDS011;24114;52.260;6.714;2022-08-07T21:29:35;2.67;;;2.07;;
38312;SDS011;24114;52.260;6.714;2022-08-07T21:32:18;2.22;;;2.00;;
38312;SDS011;24114;52.260;6.714;2022-08-07T21:35:08;2.92;;;2.17;;
38312;SDS011;24114;52.260;6.714;2022-08-07T21:37:42;3.67;;;2.35;;
38312;SDS011;24114;52.260;6.714;2022-08-07T21:40:30;2.97;;;2.30;;
38312;SDS011;24114;52.260;6.714;2022-08-07T21:43:04;2.30;;;2.08;;
38312;SDS011;24114;52.260;6.714;2022-08-07T21:45:38;2.95;;;2.60;;
38312;SDS011;24114;52.260;6.714;2022-08-07T21:48:32;4.03;;;2.70;;
38312;SDS011;24114;52.260;6.714;2022-08-07T21:51:09;2.47;;;2.28;;
38312;SDS011;24114;52.260;6.714;2022-08-07T21:53:45;2.67;;;1.93;;
38312;SDS011;24114;52.260;6.714;2022-08-07T21:56:22;2.60;;;2.08;;
38312;SDS011;24114;52.260;6.714;2022-08-07T21:59:02;4.07;;;2.75;;
38312;SDS011;24114;52.260;6.714;2022-08-07T22:01:34;2.90;;;2.13;;
38312;SDS011;24114;52.260;6.714;2022-08-07T22:04:26;3.13;;;2.80;;
38312;SDS011;24114;52.260;6.714;2022-08-07T22:06:57;3.40;;;2.40;;
38312;SDS011;24114;52.260;6.714;2022-08-07T22:09:29;2.83;;;2.45;;
38312;SDS011;24114;52.260;6.714;2022-08-07T22:12:22;3.50;;;2.63;;
38312;SDS011;24114;52.260;6.714;2022-08-07T22:14:58;2.95;;;2.65;;
38312;SDS011;24114;52.260;6.714;2022-08-07T22:17:52;3.15;;;2.58;;
38312;SDS011;24114;52.260;6.714;2022-08-07T22:20:24;3.83;;;2.80;;
38312;SDS011;24114;52.260;6.714;2022-08-07T22:23:00;3.42;;;2.80;;
38312;SDS011;24114;52.260;6.714;2022-08-07T22:25:33;2.97;;;2.60;;
38312;SDS011;24114;52.260;6.714;2022-08-07T22:28:11;3.40;;;3.10;;
38312;SDS011;24114;52.260;6.714;2022-08-07T22:30:59;3.90;;;3.10;;
38312;SDS011;24114;52.260;6.714;2022-08-07T22:33:32;5.32;;;3.00;;
38312;SDS011;24114;52.260;6.714;2022-08-07T22:36:25;4.05;;;3.20;;
38312;SDS011;24114;52.260;6.714;2022-08-07T22:38:58;5.25;;;3.00;;
38312;SDS011;24114;52.260;6.714;2022-08-07T22:41:32;4.05;;;3.10;;
38312;SDS011;24114;52.260;6.714;2022-08-07T22:44:23;4.40;;;3.00;;
38312;SDS011;24114;52.260;6.714;2022-08-07T22:47:02;4.57;;;3.33;;
38312;SDS011;24114;52.260;6.714;2022-08-07T22:49:56;3.83;;;3.40;;
38312;SDS011;24114;52.260;6.714;2022-08-07T22:52:43;4.68;;;3.47;;
38312;SDS011;24114;52.260;6.714;2022-08-07T22:55:37;3.95;;;3.10;;
38312;SDS011;24114;52.260;6.714;2022-08-07T22:58:17;5.88;;;3.45;;
38312;SDS011;24114;52.260;6.714;2022-08-07T23:01:20;3.40;;;3.10;;
38312;SDS011;24114;52.260;6.714;2022-08-07T23:04:20;4.47;;;3.30;;
38312;SDS011;24114;52.260;6.714;2022-08-07T23:07:25;3.78;;;3.42;;
38312;SDS011;24114;52.260;6.714;2022-08-07T23:10:11;3.85;;;3.45;;
38312;SDS011;24114;52.260;6.714;2022-08-07T23:13:15;3.38;;;3.08;;
38312;SDS011;24114;52.260;6.714;2022-08-07T23:15:56;4.72;;;3.70;;
38312;SDS011;24114;52.260;6.714;2022-08-07T23:18:39;4.28;;;3.67;;
38312;SDS011;24114;52.260;6.714;2022-08-07T23:21:40;3.90;;;3.50;;
38312;SDS011;24114;52.260;6.714;2022-08-07T23:24:15;3.80;;;3.50;;
38312;SDS011;24114;52.260;6.714;2022-08-07T23:27:02;3.97;;;3.60;;
38312;SDS011;24114;52.260;6.714;2022-08-07T23:36:13;4.30;;;3.67;;
38312;SDS011;24114;52.260;6.714;2022-08-07T23:38:55;4.07;;;3.30;;
38312;SDS011;24114;52.260;6.714;2022-08-07T23:41:39;4.20;;;3.50;;
38312;SDS011;24114;52.260;6.714;2022-08-07T23:44:36;3.97;;;3.50;;
38312;SDS011;24114;52.260;6.714;2022-08-07T23:47:18;3.97;;;3.58;;
38312;SDS011;24114;52.260;6.714;2022-08-07T23:50:02;5.17;;;4.00;;
38312;SDS011;24114;52.260;6.714;2022-08-07T23:52:48;4.85;;;3.58;;
38312;SDS011;24114;52.260;6.714;2022-08-07T23:55:28;4.88;;;3.88;;
38312;SDS011;24114;52.260;6.714;2022-08-07T23:58:20;4.30;;;3.90;;
